ADDS METAR Data INFO
IDs: Format: Raw Decoded Include TAF

Data at: 1858 UTC 22 Aug 2017

Region: TOP
KATL 221852Z 29005KT 10SM SCT055 SCT250 33/20 A3008 RMK AO2 SLP172 T03330200 $

KBOS 221854Z 20015KT 10SM SCT043 BKN250 32/21 A2984 RMK AO2 SLP105 T03170211

KBWI 221854Z 22010G22KT 10SM SCT055 33/22 A2990 RMK AO2 SLP124 T03330222

KCLE 221851Z 26013KT 10SM SCT033 OVC100 25/22 A2985 RMK AO2 RAE47 SLP100 P0000 T02500222

KCLT 221852Z COR 15009G16KT 10SM FEW038 FEW130 SCT250 32/23 A3005 RMK AO2 SLP165 CB DSNT SE-S T03220233

KCVG 221852Z 32005KT 10SM BKN027 BKN046 OVC060 27/23 A2993 RMK AO2 RAE10 TSB1753E10 SLP123 OCNL BINOVC P0019 T02720228

KDCA 221852Z 18016G22KT 10SM FEW050 33/23 A2992 RMK AO2 SLP131 T03280233

KDEN 221853Z 14006G15KT 10SM FEW040 FEW070 BKN220 27/14 A3028 RMK AO2 SLP175 TCU DSNT W T02720139

KDFW 221853Z 17005KT 10SM SCT055 SCT250 36/20 A3002 RMK AO2 SLP156 TCU DSNT S W T03560200

KDTW 221853Z 24018G26KT 10SM BKN045 OVC070 26/19 A2978 RMK AO2 PK WND 24026/1844 SLP079 T02610189 $

KEWR 221851Z 20010G20KT 10SM SCT040 BKN060 BKN250 32/22 A2987 RMK AO2 SLP115 T03170222

KFLL 221853Z 09013KT 10SM SCT027 SCT032 BKN250 31/25 A2999 RMK AO2 SLP156 T03110250 $

KIAD 221852Z 18008KT 10SM SCT048 33/23 A2991 RMK AO2 LTG DSNT NW-NE SLP126 TCU DSNT W-NW T03280228

KIAH 221853Z 13004KT 10SM SCT045 34/22 A3004 RMK AO2 SLP172 MDT CU DSNT SE T03440222

KJFK 221851Z 18014KT 10SM FEW028 FEW250 29/26 A2991 RMK AO2 SLP127 T02940256

KLAS 221756Z 05004KT 10SM SCT100 SCT150 32/11 A3010 RMK AO2 SLP165 ACC DSNT E T03220111 10322 20250 50002

KLAX 221853Z 25010KT 10SM FEW009 SCT015 23/18 A3002 RMK AO2 SLP163 T02330178

KLGA 221851Z 18011G16KT 10SM SCT035 BKN200 31/24 A2988 RMK AO2 SLP116 T03110244

KMCO 221853Z 05011KT 10SM SCT050 BKN300 34/20 A3004 RMK AO2 SLP171 T03440200

KMDW 221853Z 30014KT 10SM SCT038 BKN047 26/17 A2990 RMK AO2 SLP114 T02610167

KMEM 221854Z 23009KT 10SM FEW040 FEW250 33/24 A3001 RMK AO2 SLP157 T03330239

KMIA 221853Z 10012G16KT 10SM FEW033 SCT180 BKN250 33/24 A3000 RMK AO2 SLP157 T03330244

KMSP 221853Z 30019G25KT 10SM FEW065 24/09 A3004 RMK AO2 PK WND 33028/1838 SLP168 T02390089

KORD 221851Z 31018KT 10SM FEW048 BKN060 26/13 A2990 RMK AO2 SLP120 T02560128

KPDX 221853Z 36005KT 10SM BKN060 24/15 A3004 RMK AO2 SLP170 FU BKN060 T02440150

KPHL 221854Z 20013KT 10SM SCT037 33/23 A2990 RMK AO2 SLP123 T03280228 $

KPHX 221851Z 17005KT 10SM FEW110 FEW150 39/12 A2994 RMK AO2 SLP115 T03890117

KPIT 221851Z 21007G16KT 9SM -TSRA FEW009 SCT025CB SCT090 BKN250 24/22 A2987 RMK AO2 PK WND 23032/1840 LTG DSNT E-SW SLP112 OCNL LTGCC VC SE TS VC SE MOV NE P0056 T02390222

KSAN 221851Z 29011KT 10SM FEW018 24/18 A3002 RMK AO2 SLP166 T02440178

KSEA 221853Z VRB03KT 10SM CLR 26/13 A3002 RMK AO2 SLP170 T02560133

KSFO 221756Z 31011KT 10SM CLR 19/13 A3005 RMK AO2 SLP176 T01940133 10194 20161 50001

KSLC 221854Z VRB04KT 10SM FEW110 SCT140 BKN220 31/08 A3020 RMK AO2 SLP163 VIRGA DSNT SE CB DSNT E-SE AND SW-W TCU DSNT E-SE AND SW ACSL DSNT E T03110078

KSTL 221851Z 31010G17KT 10SM FEW021 FEW043 BKN250 27/20 A3003 RMK AO2 SLP155 T02670200

KTPA 221853Z 08004KT 10SM FEW060 SCT300 36/21 A3003 RMK AO2 SLP168 T03560206